createdAt,value
2022-09-13T00:05:41.574Z,100.00
2022-09-13T00:15:49.358Z,100.00
2022-09-13T00:26:02.605Z,100.00
2022-09-13T00:36:11.492Z,100.00
2022-09-13T00:46:29.769Z,100.00
2022-09-13T00:56:38.384Z,100.00
2022-09-13T01:06:44.756Z,100.00
2022-09-13T01:16:48.067Z,100.00
2022-09-13T01:27:08.951Z,100.00
2022-09-13T01:37:17.057Z,100.00
2022-09-13T01:47:33.101Z,100.00
2022-09-13T01:58:10.756Z,100.00
2022-09-13T02:08:20.101Z,100.00
2022-09-13T02:18:29.227Z,100.00
2022-09-13T02:28:41.340Z,100.00
2022-09-13T02:39:10.433Z,100.00
2022-09-13T02:49:14.656Z,100.00
2022-09-13T02:59:24.559Z,100.00
2022-09-13T03:09:26.714Z,100.00
2022-09-13T03:19:54.482Z,100.00
2022-09-13T03:30:17.828Z,100.00
2022-09-13T03:40:43.508Z,100.00
2022-09-13T03:50:50.958Z,100.00
2022-09-13T04:00:55.017Z,100.00
2022-09-13T04:11:01.741Z,100.00
2022-09-13T04:21:07.576Z,100.00
2022-09-13T04:31:12.286Z,100.00
2022-09-13T04:41:16.151Z,100.00
2022-09-13T04:51:18.989Z,100.00
2022-09-13T05:01:27.676Z,100.00
2022-09-13T05:11:32.561Z,100.00
2022-09-13T05:21:39.264Z,97.43
2022-09-13T05:31:42.780Z,94.75
2022-09-13T05:41:49.439Z,93.90
2022-09-13T05:51:53.816Z,89.85
2022-09-13T06:02:00.779Z,87.13
2022-09-13T06:12:09.507Z,79.40
2022-09-13T06:22:12.962Z,74.03
2022-09-13T06:32:17.543Z,73.02
2022-09-13T06:42:24.761Z,69.89
2022-09-13T06:52:33.867Z,68.90
2022-09-13T07:02:42.220Z,68.80
2022-09-13T07:12:46.858Z,68.70
2022-09-13T07:22:51.063Z,69.20
2022-09-13T07:32:53.951Z,65.41
2022-09-13T07:42:58.831Z,60.22
2022-09-13T07:53:01.377Z,57.70
2022-09-13T08:03:12.257Z,56.18
2022-09-13T08:13:17.348Z,51.73
2022-09-13T08:23:19.411Z,48.36
2022-09-13T08:33:21.500Z,48.83
2022-09-13T08:43:41.120Z,49.86
2022-09-13T08:53:50.194Z,50.50
2022-09-13T09:04:02.090Z,50.08
2022-09-13T09:14:17.869Z,49.07
2022-09-13T09:24:23.659Z,49.44
2022-09-13T09:34:44.683Z,49.08
2022-09-13T09:44:49.862Z,49.71
2022-09-13T09:54:59.973Z,50.27
2022-09-13T10:05:26.777Z,50.24
2022-09-13T10:15:35.852Z,49.66
2022-09-13T10:25:43.713Z,49.48
2022-09-13T10:35:50.355Z,49.95
2022-09-13T10:45:54.809Z,50.49
2022-09-13T10:55:56.926Z,50.08
2022-09-13T11:06:06.843Z,50.09
2022-09-13T11:16:26.656Z,50.23
2022-09-13T11:26:38.866Z,49.59
2022-09-13T11:36:41.197Z,50.97
2022-09-13T11:46:55.788Z,51.13
2022-09-13T11:57:03.034Z,51.80
2022-09-13T12:07:11.253Z,52.94
2022-09-13T12:17:24.450Z,53.90
2022-09-13T12:27:40.139Z,56.04
2022-09-13T12:38:16.881Z,57.86
2022-09-13T12:48:21.746Z,61.33
2022-09-13T12:58:49.112Z,63.06
2022-09-13T13:08:55.934Z,64.85
2022-09-13T13:19:06.662Z,64.92
2022-09-13T13:29:20.098Z,67.30
2022-09-13T13:39:25.253Z,71.00
2022-09-13T13:49:30.277Z,68.74
2022-09-13T13:59:33.691Z,70.56
2022-09-13T14:09:47.662Z,69.31
2022-09-13T14:19:56.423Z,68.79
2022-09-13T14:30:00.932Z,69.34
2022-09-13T14:40:22.550Z,68.88
2022-09-13T14:50:28.718Z,68.58
2022-09-13T15:00:35.955Z,68.88
2022-09-13T15:10:44.049Z,69.57
2022-09-13T15:21:23.725Z,70.24
2022-09-13T15:31:31.348Z,71.50
2022-09-13T15:41:38.462Z,71.59
2022-09-13T15:51:43.218Z,70.78
2022-09-13T16:01:57.148Z,72.53
2022-09-13T16:11:59.287Z,73.20
2022-09-13T16:22:10.849Z,74.84
2022-09-13T16:32:17.017Z,76.30
2022-09-13T16:42:20.119Z,76.05
2022-09-13T16:52:22.181Z,77.48
2022-09-13T17:02:28.014Z,78.68
2022-09-13T17:12:33.763Z,79.34
2022-09-13T17:22:38.206Z,80.94
2022-09-13T17:32:41.089Z,80.30
2022-09-13T17:42:43.798Z,80.33
2022-09-13T17:52:47.409Z,81.69
2022-09-13T18:02:52.715Z,82.27
2022-09-13T18:12:55.639Z,82.36
2022-09-13T18:22:59.452Z,83.31
2022-09-13T18:33:02.122Z,84.73
2022-09-13T18:43:06.491Z,85.80
2022-09-13T18:53:08.640Z,87.04
2022-09-13T19:03:13.463Z,87.90
2022-09-13T19:13:22.496Z,88.26
2022-09-13T19:23:37.668Z,88.62
2022-09-13T19:34:00.406Z,90.11
2022-09-13T19:44:06.363Z,91.66
2022-09-13T19:54:14.127Z,92.44
2022-09-13T20:04:19.914Z,93.30
2022-09-13T20:14:25.859Z,91.97
2022-09-13T20:24:28.739Z,92.39
2022-09-13T20:34:39.462Z,94.05
2022-09-13T20:44:44.469Z,94.71
2022-09-13T20:54:49.133Z,95.79
2022-09-13T21:04:55.845Z,97.48
2022-09-13T21:14:58.402Z,99.10
2022-09-13T21:25:03.343Z,100.00
2022-09-13T21:35:10.586Z,100.00
2022-09-13T21:45:16.128Z,100.00
2022-09-13T21:55:20.967Z,100.00
2022-09-13T22:05:26.170Z,100.00
2022-09-13T22:15:28.270Z,100.00
2022-09-13T22:25:32.552Z,100.00
2022-09-13T22:35:37.164Z,100.00
2022-09-13T22:45:41.627Z,100.00
2022-09-13T22:55:46.038Z,100.00
2022-09-13T23:05:56.178Z,100.00
2022-09-13T23:16:02.484Z,100.00
2022-09-13T23:26:13.461Z,100.00
2022-09-13T23:36:17.722Z,100.00
2022-09-13T23:46:21.473Z,100.00
2022-09-13T23:56:25.166Z,100.00
